Time;durP1;ratioP1;P1;durP2;ratioP2;P2;SDS_P1;SDS_P2;PMS_P1;PMS_P2;Temp;Humidity;BMP_temperature;BMP_pressure;BME280_temperature;BME280_humidity;BME280_pressure;Samples;Min_cycle;Max_cycle;Signal;HPM_P1;HPM_P2
2021/07/08 00:01:54;;;;;;;12.02;10.80;;;17.00;97.50;;;;;;3586443;40;20071;-84
2021/07/08 00:04:20;;;;;;;14.82;10.68;;;17.00;97.40;;;;;;3595970;40;20080;-85
2021/07/08 00:06:46;;;;;;;12.50;10.63;;;16.90;97.40;;;;;;3586618;40;20044;-84
2021/07/08 00:09:12;;;;;;;14.73;12.25;;;16.90;97.40;;;;;;3595536;40;20220;-83
2021/07/08 00:11:38;;;;;;;14.95;12.65;;;16.80;97.40;;;;;;3587449;40;20039;-84
2021/07/08 00:14:05;;;;;;;12.60;11.43;;;16.80;97.40;;;;;;3588412;40;20040;-81
2021/07/08 00:16:32;;;;;;;16.05;13.43;;;16.80;97.40;;;;;;3588333;40;20044;-84
2021/07/08 00:18:59;;;;;;;14.65;12.85;;;16.80;97.40;;;;;;3587151;40;20036;-83
2021/07/08 00:21:25;;;;;;;17.13;11.05;;;16.80;97.40;;;;;;3588202;40;20051;-83
2021/07/08 00:23:52;;;;;;;13.80;10.70;;;16.80;97.30;;;;;;3587817;40;20368;-86
2021/07/08 00:26:18;;;;;;;13.18;11.85;;;16.80;97.30;;;;;;3597383;40;20036;-85
2021/07/08 00:28:45;;;;;;;13.88;11.18;;;16.80;97.30;;;;;;3596949;40;20461;-85
2021/07/08 00:31:12;;;;;;;10.90;9.75;;;16.80;97.40;;;;;;3595949;40;20311;-85
2021/07/08 00:33:38;;;;;;;15.90;10.27;;;16.80;97.30;;;;;;3587886;40;20090;-83
2021/07/08 00:36:04;;;;;;;12.18;10.98;;;16.70;97.20;;;;;;3597416;40;20370;-81
2021/07/08 00:38:31;;;;;;;12.95;10.95;;;16.70;97.30;;;;;;3597465;40;20059;-85
2021/07/08 00:40:57;;;;;;;15.35;11.98;;;16.70;97.40;;;;;;3597396;40;20044;-84
2021/07/08 00:43:28;;;;;;;15.27;12.00;;;16.60;97.40;;;;;;3586357;40;20383;-86
2021/07/08 00:45:54;;;;;;;17.83;12.57;;;16.60;97.40;;;;;;3591620;40;20044;-82
2021/07/08 00:48:20;;;;;;;15.27;12.27;;;16.60;97.50;;;;;;3579722;40;20043;-85
2021/07/08 00:50:46;;;;;;;13.30;10.85;;;16.50;97.50;;;;;;3596986;40;20028;-84
2021/07/08 00:53:13;;;;;;;11.80;10.48;;;16.50;97.60;;;;;;3595971;40;20121;-84
2021/07/08 00:55:42;;;;;;;11.00;9.90;;;16.50;97.70;;;;;;3587718;40;20043;-85
2021/07/08 00:58:10;;;;;;;13.27;11.55;;;16.40;97.70;;;;;;3588155;40;20036;-86
2021/07/08 01:00:37;;;;;;;11.70;10.70;;;16.40;97.70;;;;;;3588204;40;20044;-83
2021/07/08 01:03:09;;;;;;;12.07;10.45;;;16.40;97.60;;;;;;3596462;40;20426;-86
2021/07/08 01:05:47;;;;;;;14.23;11.43;;;16.30;97.50;;;;;;3588042;40;20065;-85
2021/07/08 01:08:13;;;;;;;13.23;11.15;;;16.30;97.60;;;;;;3587979;40;20052;-83
2021/07/08 01:10:41;;;;;;;12.70;11.40;;;16.30;97.70;;;;;;3592600;40;20043;-85
2021/07/08 01:13:07;;;;;;;12.20;11.07;;;16.30;97.70;;;;;;3589790;40;20658;-85
2021/07/08 01:15:34;;;;;;;13.77;12.50;;;16.20;97.70;;;;;;3578963;40;20338;-82
2021/07/08 01:18:00;;;;;;;13.25;11.77;;;16.20;97.70;;;;;;3596785;40;20092;-85
2021/07/08 01:20:29;;;;;;;13.70;12.20;;;16.20;97.70;;;;;;3597393;40;20048;-84
2021/07/08 01:22:58;;;;;;;12.00;10.75;;;16.20;97.70;;;;;;3596652;40;20036;-84
2021/07/08 01:25:26;;;;;;;14.35;12.32;;;16.20;97.80;;;;;;3596245;40;20044;-82
2021/07/08 01:27:52;;;;;;;11.68;10.57;;;16.10;97.80;;;;;;3597143;40;20434;-86
2021/07/08 01:30:19;;;;;;;11.02;9.93;;;16.10;97.70;;;;;;3595924;40;20054;-85
2021/07/08 01:32:45;;;;;;;17.00;10.38;;;16.10;97.80;;;;;;3597334;40;20678;-84
2021/07/08 01:35:11;;;;;;;10.73;9.18;;;16.10;97.80;;;;;;3587836;40;20063;-84
2021/07/08 01:37:38;;;;;;;15.38;11.80;;;16.10;97.70;;;;;;3587848;40;20274;-82
2021/07/08 01:40:09;;;;;;;12.82;10.32;;;16.00;97.70;;;;;;3587409;40;20047;-84
2021/07/08 01:42:36;;;;;;;14.10;12.57;;;16.00;97.60;;;;;;3596746;40;20133;-84
2021/07/08 01:45:04;;;;;;;16.40;13.13;;;16.00;97.60;;;;;;3597423;40;20318;-82
2021/07/08 01:47:30;;;;;;;13.50;12.30;;;16.00;97.60;;;;;;3597295;40;20128;-85
2021/07/08 01:49:56;;;;;;;13.95;12.35;;;16.00;97.60;;;;;;3587462;40;20048;-84
2021/07/08 01:52:22;;;;;;;14.95;11.90;;;16.00;97.60;;;;;;3587830;40;20324;-85
2021/07/08 01:54:48;;;;;;;14.98;13.50;;;15.90;97.60;;;;;;3585459;40;20073;-81
2021/07/08 01:57:14;;;;;;;16.92;12.50;;;15.90;97.70;;;;;;3586911;40;20048;-85
2021/07/08 01:59:40;;;;;;;15.07;12.50;;;15.90;97.70;;;;;;3595285;40;20556;-84
2021/07/08 02:02:06;;;;;;;13.98;12.70;;;15.90;97.70;;;;;;3587941;40;20537;-82
2021/07/08 02:04:32;;;;;;;14.13;12.73;;;15.90;97.80;;;;;;3587386;40;20044;-84
2021/07/08 02:07:02;;;;;;;13.32;11.90;;;15.80;97.70;;;;;;3588009;40;20062;-85
2021/07/08 02:09:30;;;;;;;19.67;14.18;;;15.80;97.80;;;;;;3587747;40;20040;-85
2021/07/08 02:11:58;;;;;;;14.48;12.98;;;15.80;97.80;;;;;;3585686;40;20319;-83
2021/07/08 02:14:27;;;;;;;14.77;12.43;;;15.80;97.80;;;;;;3577626;40;20526;-83
2021/07/08 02:16:54;;;;;;;16.45;14.57;;;15.80;97.90;;;;;;3596275;39;20043;-82
2021/07/08 02:19:20;;;;;;;15.32;13.48;;;15.70;97.90;;;;;;3587247;40;20051;-83
2021/07/08 02:21:46;;;;;;;15.88;13.70;;;15.70;98.00;;;;;;3596656;40;20040;-85
2021/07/08 02:24:12;;;;;;;15.13;13.73;;;15.70;98.10;;;;;;3587510;40;20315;-82
2021/07/08 02:26:38;;;;;;;16.20;13.95;;;15.60;98.10;;;;;;3586984;40;20043;-83
2021/07/08 02:29:03;;;;;;;15.88;13.75;;;15.60;98.30;;;;;;3596605;40;20055;-84
2021/07/08 02:31:29;;;;;;;17.83;14.68;;;15.50;98.30;;;;;;3584362;40;20071;-82
2021/07/08 02:33:55;;;;;;;16.50;14.80;;;15.40;98.20;;;;;;3590111;40;20063;-85
2021/07/08 02:36:21;;;;;;;17.60;14.07;;;15.40;98.20;;;;;;3590234;40;20054;-83
2021/07/08 02:38:47;;;;;;;15.65;14.25;;;15.40;98.20;;;;;;3587255;40;20408;-84
2021/07/08 02:41:13;;;;;;;17.52;15.07;;;15.40;98.40;;;;;;3597176;40;20052;-84
2021/07/08 02:43:39;;;;;;;16.70;15.15;;;15.40;98.40;;;;;;3587116;40;20040;-83
2021/07/08 02:46:06;;;;;;;17.67;14.80;;;15.40;98.60;;;;;;3596434;40;20043;-84
2021/07/08 02:48:32;;;;;;;15.98;14.32;;;15.40;98.50;;;;;;3586695;40;20036;-85
2021/07/08 02:50:58;;;;;;;19.23;16.58;;;15.30;98.70;;;;;;3596424;40;20044;-85
2021/07/08 02:53:24;;;;;;;18.17;14.20;;;15.30;98.40;;;;;;3595767;40;20039;-85
2021/07/08 02:55:50;;;;;;;15.35;13.70;;;15.40;98.40;;;;;;3586903;40;20068;-85
2021/07/08 02:58:17;;;;;;;16.27;14.70;;;15.40;98.30;;;;;;3596553;40;20040;-84
2021/07/08 03:00:43;;;;;;;17.13;14.80;;;15.40;98.40;;;;;;3595911;40;20273;-82
2021/07/08 03:03:10;;;;;;;15.98;14.38;;;15.40;98.30;;;;;;3577240;40;20048;-83
2021/07/08 03:05:36;;;;;;;20.33;14.95;;;15.40;98.20;;;;;;3576821;40;20084;-82
2021/07/08 03:08:04;;;;;;;19.60;15.73;;;15.40;98.20;;;;;;3586506;40;20037;-83
2021/07/08 03:10:30;;;;;;;21.20;17.10;;;15.40;98.20;;;;;;3590065;40;20040;-85
2021/07/08 03:12:57;;;;;;;18.98;16.73;;;15.40;98.20;;;;;;3594815;39;20036;-83
2021/07/08 03:15:24;;;;;;;18.90;15.73;;;15.50;98.30;;;;;;3586966;40;20068;-84
2021/07/08 03:17:51;;;;;;;17.77;14.55;;;15.40;98.20;;;;;;3594359;40;20042;-83
2021/07/08 03:20:22;;;;;;;19.33;15.50;;;15.50;98.20;;;;;;3596560;40;20043;-84
2021/07/08 03:22:50;;;;;;;18.60;14.15;;;15.50;98.20;;;;;;3586767;40;20068;-83
2021/07/08 03:25:17;;;;;;;17.75;15.95;;;15.50;98.20;;;;;;3585368;40;20048;-85
2021/07/08 03:27:44;;;;;;;20.20;16.55;;;15.50;98.20;;;;;;3585020;40;20048;-83
2021/07/08 03:30:12;;;;;;;20.52;18.40;;;15.40;98.20;;;;;;3585125;40;20290;-84
2021/07/08 03:32:39;;;;;;;20.52;18.17;;;15.40;98.30;;;;;;3585898;40;20052;-84
2021/07/08 03:35:07;;;;;;;20.38;16.70;;;15.50;98.70;;;;;;3578587;40;20071;-84
2021/07/08 03:37:33;;;;;;;21.15;19.05;;;15.50;98.30;;;;;;3586614;40;20169;-85
2021/07/08 03:39:59;;;;;;;25.10;19.08;;;15.40;98.30;;;;;;3596143;40;20054;-84
2021/07/08 03:42:25;;;;;;;21.25;19.00;;;15.40;98.30;;;;;;3596289;40;20040;-82
2021/07/08 03:44:51;;;;;;;21.38;18.83;;;15.50;98.40;;;;;;3595867;40;20777;-83
2021/07/08 03:47:17;;;;;;;20.58;18.02;;;15.50;98.40;;;;;;3577765;40;20243;-84
2021/07/08 03:49:43;;;;;;;19.70;17.77;;;15.50;98.50;;;;;;3586444;40;20040;-85
2021/07/08 03:52:09;;;;;;;19.90;17.80;;;15.50;98.60;;;;;;3587733;40;20044;-84
2021/07/08 03:54:35;;;;;;;26.13;18.65;;;15.40;99.00;;;;;;3587417;40;20258;-84
2021/07/08 03:57:00;;;;;;;21.15;18.33;;;15.40;98.70;;;;;;3588526;40;20550;-83
2021/07/08 03:59:26;;;;;;;22.92;20.50;;;15.40;98.60;;;;;;3588553;40;20046;-83
2021/07/08 04:01:52;;;;;;;21.02;18.77;;;15.40;98.70;;;;;;3587733;40;20349;-82
2021/07/08 04:04:18;;;;;;;22.15;19.80;;;15.40;98.70;;;;;;3597686;40;20145;-82
2021/07/08 04:06:44;;;;;;;24.00;19.73;;;15.40;98.70;;;;;;3587973;40;20343;-81
2021/07/08 04:09:10;;;;;;;22.88;19.75;;;15.40;98.70;;;;;;3582084;40;20087;-82
2021/07/08 04:11:36;;;;;;;23.85;20.25;;;15.40;98.80;;;;;;3596032;39;20486;-82
2021/07/08 04:14:02;;;;;;;22.48;19.63;;;15.40;98.80;;;;;;3597470;40;20060;-84
2021/07/08 04:16:28;;;;;;;20.35;18.23;;;15.40;98.80;;;;;;3579753;40;20078;-84
2021/07/08 04:19:02;;;;;;;21.75;19.58;;;15.40;99.00;;;;;;3596541;40;20055;-82
2021/07/08 04:21:28;;;;;;;20.48;18.48;;;15.50;98.90;;;;;;3597548;40;20058;-85
2021/07/08 04:23:54;;;;;;;21.90;19.58;;;15.50;98.90;;;;;;3597232;40;20326;-84
2021/07/08 04:26:20;;;;;;;25.48;19.85;;;15.60;99.00;;;;;;3597237;40;20050;-82
2021/07/08 04:28:46;;;;;;;20.98;17.65;;;15.60;98.90;;;;;;3597084;40;20047;-82
2021/07/08 04:31:16;;;;;;;20.00;17.80;;;15.70;98.80;;;;;;3596622;39;20046;-85
2021/07/08 04:33:43;;;;;;;22.20;19.52;;;15.70;98.70;;;;;;3588096;40;20040;-83
2021/07/08 04:36:12;;;;;;;20.73;18.73;;;15.80;98.70;;;;;;3597348;40;20125;-83
2021/07/08 04:38:43;;;;;;;23.23;19.73;;;15.90;98.70;;;;;;3597003;40;20043;-83
2021/07/08 04:41:29;;;;;;;23.85;19.77;;;15.90;98.70;;;;;;3582707;40;20149;-82
2021/07/08 04:43:54;;;;;;;25.20;19.70;;;16.00;98.70;;;;;;3587182;40;20553;-84
2021/07/08 04:46:23;;;;;;;22.50;20.10;;;16.10;98.70;;;;;;3586328;40;20119;-83
2021/07/08 04:48:56;;;;;;;22.77;18.77;;;16.30;98.70;;;;;;3597123;40;20052;-81
2021/07/08 04:51:22;;;;;;;21.25;18.60;;;16.40;98.60;;;;;;3597359;40;20048;-83
2021/07/08 04:53:49;;;;;;;19.98;17.88;;;16.60;98.50;;;;;;3595798;40;20348;-84
2021/07/08 04:56:15;;;;;;;19.90;17.52;;;16.70;98.30;;;;;;3569376;40;20033;-82
2021/07/08 04:58:40;;;;;;;21.48;18.85;;;16.80;98.20;;;;;;3586790;40;20255;-81
2021/07/08 05:01:06;;;;;;;19.55;17.23;;;17.00;98.10;;;;;;3580234;40;20047;-81
2021/07/08 05:03:32;;;;;;;20.60;18.40;;;17.10;98.00;;;;;;3577166;40;20037;-82
2021/07/08 05:05:59;;;;;;;20.63;18.52;;;17.20;97.90;;;;;;3586320;40;20086;-83
2021/07/08 05:08:25;;;;;;;18.63;16.65;;;17.30;97.70;;;;;;3587146;40;20411;-82
2021/07/08 05:10:51;;;;;;;19.52;17.55;;;17.40;97.60;;;;;;3594026;40;20043;-82
2021/07/08 05:13:17;;;;;;;20.40;18.40;;;17.50;97.60;;;;;;3595693;40;20064;-82
2021/07/08 05:15:43;;;;;;;21.70;18.15;;;17.60;97.50;;;;;;3596597;40;20220;-83
2021/07/08 05:18:09;;;;;;;20.58;17.25;;;17.70;97.40;;;;;;3595216;40;20048;-84
2021/07/08 05:20:37;;;;;;;19.85;17.77;;;17.80;97.30;;;;;;3587470;40;20043;-81
2021/07/08 05:23:06;;;;;;;17.50;14.50;;;18.00;97.30;;;;;;3596965;40;20040;-84
2021/07/08 05:25:32;;;;;;;18.50;15.40;;;18.00;97.20;;;;;;3587631;40;20032;-80
2021/07/08 05:27:58;;;;;;;17.60;15.80;;;18.10;97.10;;;;;;3597154;40;20402;-83
2021/07/08 05:30:24;;;;;;;19.70;16.02;;;18.20;96.90;;;;;;3584250;40;20414;-83
2021/07/08 05:32:50;;;;;;;20.80;14.75;;;18.30;96.80;;;;;;3585555;40;20201;-82
2021/07/08 05:35:16;;;;;;;17.38;15.25;;;18.40;96.60;;;;;;3585748;40;20049;-84
2021/07/08 05:37:42;;;;;;;17.45;14.73;;;18.50;96.50;;;;;;3585947;40;20043;-81
2021/07/08 05:40:08;;;;;;;15.02;13.32;;;18.60;96.60;;;;;;3586618;40;20072;-84
2021/07/08 05:42:35;;;;;;;17.40;13.15;;;18.60;96.40;;;;;;3598447;39;20063;-83
2021/07/08 05:45:00;;;;;;;13.73;12.18;;;18.70;96.30;;;;;;3600749;39;20036;-82
2021/07/08 05:47:26;;;;;;;13.77;12.10;;;18.80;96.20;;;;;;3600759;39;20430;-83
2021/07/08 05:49:53;;;;;;;16.42;11.52;;;18.80;96.10;;;;;;3600126;39;20040;-84
2021/07/08 05:52:19;;;;;;;13.88;11.20;;;18.90;96.00;;;;;;3589602;39;20062;-82
2021/07/08 05:54:45;;;;;;;12.45;11.15;;;18.90;96.00;;;;;;3594698;39;20052;-82
2021/07/08 05:57:10;;;;;;;13.57;11.23;;;19.00;95.90;;;;;;3592884;39;20130;-84
2021/07/08 05:59:36;;;;;;;13.13;11.30;;;19.10;95.80;;;;;;3587710;39;20032;-81
2021/07/08 06:02:02;;;;;;;13.27;11.07;;;19.20;95.80;;;;;;3587353;40;20353;-81
2021/07/08 06:04:28;;;;;;;14.70;10.93;;;19.30;95.70;;;;;;3587142;39;20047;-83
2021/07/08 06:06:54;;;;;;;14.77;11.55;;;19.40;95.60;;;;;;3590217;39;20247;-81
2021/07/08 06:09:20;;;;;;;14.32;11.75;;;19.50;95.50;;;;;;3599331;39;20043;-81
2021/07/08 06:11:46;;;;;;;14.00;11.25;;;19.60;95.40;;;;;;3596539;39;20061;-83
2021/07/08 06:14:12;;;;;;;12.45;11.25;;;19.60;95.30;;;;;;3593271;40;20044;-84
2021/07/08 06:16:38;;;;;;;13.00;11.05;;;19.70;95.20;;;;;;3599954;39;20081;-82
2021/07/08 06:19:04;;;;;;;13.07;11.43;;;19.80;95.30;;;;;;3594635;40;20051;-81
2021/07/08 06:21:30;;;;;;;12.43;11.13;;;19.90;95.10;;;;;;3598938;39;20054;-85
2021/07/08 06:23:55;;;;;;;15.45;10.52;;;20.00;95.20;;;;;;3579031;40;20040;-83
2021/07/08 06:26:21;;;;;;;14.18;11.60;;;20.00;95.10;;;;;;3587427;40;20048;-85
2021/07/08 06:28:47;;;;;;;11.75;10.57;;;20.10;95.10;;;;;;3586853;40;20044;-83
2021/07/08 06:31:14;;;;;;;13.63;11.85;;;20.10;95.10;;;;;;3590322;40;20504;-82
2021/07/08 06:33:40;;;;;;;14.45;11.65;;;20.20;95.10;;;;;;3592506;39;20159;-82
2021/07/08 06:36:06;;;;;;;16.00;10.63;;;20.30;95.00;;;;;;3599017;39;20550;-84
2021/07/08 06:38:32;;;;;;;12.48;10.75;;;20.30;95.20;;;;;;3588986;40;20044;-83
2021/07/08 06:40:58;;;;;;;13.98;11.77;;;20.30;94.90;;;;;;3592317;40;20328;-80
2021/07/08 06:43:24;;;;;;;12.63;11.40;;;20.40;94.90;;;;;;3602509;39;20495;-84
2021/07/08 06:45:49;;;;;;;20.02;12.30;;;20.40;94.90;;;;;;3583736;40;20048;-83
2021/07/08 06:48:15;;;;;;;13.10;11.18;;;20.50;94.80;;;;;;3594838;40;20051;-85
2021/07/08 06:50:43;;;;;;;14.98;10.32;;;20.60;94.90;;;;;;3592586;40;20041;-83
2021/07/08 06:53:09;;;;;;;12.52;11.40;;;20.60;94.90;;;;;;3592981;40;20044;-82
2021/07/08 06:55:37;;;;;;;12.55;10.52;;;20.80;94.90;;;;;;3593432;40;20039;-82
2021/07/08 06:58:03;;;;;;;14.93;10.98;;;20.90;94.90;;;;;;3595056;40;20036;-82
2021/07/08 07:00:33;;;;;;;12.73;10.45;;;20.90;94.60;;;;;;3595961;40;20043;-85
2021/07/08 07:03:00;;;;;;;13.68;11.05;;;21.00;94.60;;;;;;3585550;40;20051;-84
2021/07/08 07:05:27;;;;;;;14.35;11.27;;;21.10;94.80;;;;;;3578001;40;20028;-83
2021/07/08 07:07:55;;;;;;;12.68;11.38;;;21.30;94.90;;;;;;3594418;40;20079;-84
2021/07/08 07:10:23;;;;;;;11.90;10.63;;;21.40;94.60;;;;;;3586950;40;20062;-82
2021/07/08 07:12:50;;;;;;;11.20;10.02;;;21.40;94.50;;;;;;3593545;40;20319;-84
2021/07/08 07:15:17;;;;;;;10.40;9.43;;;21.50;94.60;;;;;;3594172;40;20032;-80
2021/07/08 07:17:46;;;;;;;12.10;9.93;;;21.60;94.60;;;;;;3582782;40;20040;-80
2021/07/08 07:20:14;;;;;;;10.88;9.50;;;22.00;94.50;;;;;;3586000;40;20056;-81
2021/07/08 07:22:44;;;;;;;12.20;9.00;;;22.10;93.80;;;;;;3595244;39;20074;-86
2021/07/08 07:25:10;;;;;;;9.07;8.13;;;22.00;93.90;;;;;;3593439;40;20041;-85
2021/07/08 07:27:36;;;;;;;9.07;8.23;;;22.00;94.30;;;;;;3594859;40;20040;-85
2021/07/08 07:30:05;;;;;;;11.43;7.93;;;22.00;93.90;;;;;;3587138;40;20250;-84
2021/07/08 07:32:31;;;;;;;9.77;8.80;;;22.00;93.70;;;;;;3587483;40;20048;-86
2021/07/08 07:34:58;;;;;;;9.63;8.73;;;22.20;93.60;;;;;;3592754;40;20041;-84
2021/07/08 07:37:25;;;;;;;10.48;9.48;;;22.50;93.60;;;;;;3585608;40;20203;-84
2021/07/08 07:39:51;;;;;;;9.35;8.38;;;22.60;93.80;;;;;;3579607;40;20041;-87
2021/07/08 07:42:17;;;;;;;11.57;10.38;;;22.60;93.80;;;;;;3576779;40;20041;-85
2021/07/08 07:44:44;;;;;;;11.23;10.10;;;22.60;93.40;;;;;;3574370;40;20046;-86
2021/07/08 07:47:11;;;;;;;12.10;10.10;;;22.50;93.50;;;;;;3573281;40;20041;-87
2021/07/08 07:49:38;;;;;;;12.85;10.98;;;22.60;93.80;;;;;;3572682;40;20052;-84
2021/07/08 07:52:05;;;;;;;13.38;9.55;;;22.60;93.70;;;;;;3576492;40;20045;-84
2021/07/08 07:54:35;;;;;;;11.52;10.52;;;22.70;94.30;;;;;;3576567;40;20045;-86
2021/07/08 07:57:04;;;;;;;12.27;10.98;;;22.70;92.80;;;;;;3584450;40;20040;-87
2021/07/08 07:59:31;;;;;;;14.45;11.20;;;22.60;93.10;;;;;;3570818;40;20052;-86
2021/07/08 08:01:57;;;;;;;12.35;9.40;;;22.60;93.40;;;;;;3576592;40;20045;-87
2021/07/08 08:04:25;;;;;;;15.25;12.07;;;22.70;93.70;;;;;;3572447;40;20045;-84
2021/07/08 08:09:36;;;;;;;11.63;8.98;;;22.80;93.90;;;;;;3573755;40;20044;-86
2021/07/08 08:12:02;;;;;;;8.95;8.07;;;23.00;94.10;;;;;;3563395;40;20044;-83
2021/07/08 08:14:28;;;;;;;11.38;9.48;;;23.20;93.70;;;;;;3572551;40;20053;-86
2021/07/08 08:16:53;;;;;;;12.35;8.00;;;23.40;93.00;;;;;;3565289;40;20102;-84
2021/07/08 08:19:19;;;;;;;12.45;10.00;;;23.50;93.40;;;;;;3572259;40;20037;-82
2021/07/08 08:21:45;;;;;;;12.32;11.13;;;23.60;92.60;;;;;;3576739;40;20532;-85
2021/07/08 08:24:11;;;;;;;9.60;8.75;;;23.70;92.40;;;;;;3571898;40;20040;-88
2021/07/08 08:26:37;;;;;;;15.68;10.23;;;23.60;93.10;;;;;;3572221;40;20278;-84
2021/07/08 08:29:02;;;;;;;8.98;8.10;;;23.80;93.10;;;;;;3575675;40;20051;-84
2021/07/08 08:31:28;;;;;;;9.30;8.27;;;24.00;92.80;;;;;;3575840;40;20398;-84
2021/07/08 08:33:55;;;;;;;11.68;10.68;;;24.00;91.90;;;;;;3576110;40;20072;-84
2021/07/08 08:36:21;;;;;;;13.23;11.95;;;24.00;91.90;;;;;;3577588;40;20044;-88
2021/07/08 08:38:47;;;;;;;12.18;10.68;;;23.90;92.10;;;;;;3576916;40;20228;-85
2021/07/08 08:41:12;;;;;;;13.93;11.00;;;23.80;92.80;;;;;;3578382;40;20040;-86
2021/07/08 08:43:40;;;;;;;10.55;9.65;;;23.70;92.00;;;;;;3588026;40;20076;-86
2021/07/08 08:46:06;;;;;;;12.30;10.63;;;23.50;92.50;;;;;;3588172;40;20040;-86
2021/07/08 08:48:32;;;;;;;11.50;10.30;;;23.50;92.70;;;;;;3592595;40;20129;-85
2021/07/08 08:50:58;;;;;;;10.60;9.13;;;23.30;92.40;;;;;;3619060;22;20039;-86
2021/07/08 08:53:24;;;;;;;9.52;8.63;;;23.10;93.10;;;;;;3596288;39;20048;-84
2021/07/08 08:55:51;;;;;;;11.02;9.25;;;22.80;93.00;;;;;;3616355;39;20060;-83
2021/07/08 08:58:20;;;;;;;10.15;9.10;;;22.60;93.60;;;;;;3592557;39;20036;-84
2021/07/08 09:00:50;;;;;;;12.75;9.43;;;22.50;93.50;;;;;;3612316;39;20147;-82
2021/07/08 09:03:27;;;;;;;13.25;8.07;;;22.40;93.70;;;;;;3612794;39;20446;-84
2021/07/08 09:06:13;;;;;;;10.63;6.85;;;22.30;93.60;;;;;;3601916;39;20039;-84
2021/07/08 10:14:12;;;;;;;7.68;4.60;;;22.20;91.30;;;;;;3592312;40;20040;-84
2021/07/08 10:17:03;;;;;;;6.82;4.82;;;22.10;89.60;;;;;;3590781;40;20323;-83
2021/07/08 10:19:29;;;;;;;12.57;5.95;;;21.80;90.00;;;;;;3616959;23;20098;-83
2021/07/08 10:21:57;;;;;;;6.05;5.05;;;21.70;91.60;;;;;;3608684;23;20429;31
2021/07/08 10:24:29;;;;;;;6.28;4.97;;;21.90;91.60;;;;;;3563654;40;20096;-89
2021/07/08 10:26:56;;;;;;;5.57;5.07;;;22.10;91.50;;;;;;3562893;40;20041;-85
2021/07/08 10:29:23;;;;;;;5.55;4.75;;;22.20;90.40;;;;;;3567062;40;20045;-81
2021/07/08 10:34:48;;;;;;;9.63;5.25;;;22.40;91.50;;;;;;3548071;40;20058;-87
2021/07/08 10:37:27;;;;;;;7.38;4.05;;;22.60;91.00;;;;;;3549576;40;20098;-89
2021/07/08 10:39:55;;;;;;;5.65;3.45;;;22.80;90.20;;;;;;3557301;40;20096;-89
2021/07/08 10:42:44;;;;;;;7.93;4.85;;;22.90;91.40;;;;;;3538434;40;20125;-87
2021/07/08 10:45:35;;;;;;;7.07;4.32;;;23.00;87.00;;;;;;3589611;23;20099;-87
2021/07/08 10:48:15;;;;;;;6.15;3.08;;;22.90;86.10;;;;;;3584846;40;20332;-87
2021/07/08 10:50:42;;;;;;;7.18;4.10;;;22.60;87.70;;;;;;3577836;40;20037;-84
2021/07/08 10:53:15;;;;;;;7.50;3.38;;;22.40;90.20;;;;;;3584417;40;20127;-85
2021/07/08 10:55:43;;;;;;;6.40;4.25;;;22.30;88.70;;;;;;3573834;40;20043;-86
2021/07/08 10:58:40;;;;;;;6.80;3.70;;;22.20;89.40;;;;;;3585863;40;20040;-84
2021/07/08 11:01:29;;;;;;;9.25;3.85;;;22.10;88.40;;;;;;3620732;23;20037;-85
2021/07/08 11:04:01;;;;;;;6.68;4.10;;;22.00;89.40;;;;;;3584680;23;20049;-85
2021/07/08 11:06:30;;;;;;;5.80;3.67;;;22.00;90.00;;;;;;3578131;40;20129;-90
2021/07/08 11:09:19;;;;;;;8.68;4.47;;;22.20;91.00;;;;;;3601403;23;20294;-90
2021/07/08 11:11:45;;;;;;;4.78;3.20;;;22.30;88.00;;;;;;3576391;40;20323;-88
2021/07/08 11:14:16;;;;;;;5.90;3.78;;;22.40;91.20;;;;;;3623807;23;20041;-83
2021/07/08 11:16:46;;;;;;;3.58;2.95;;;22.60;90.80;;;;;;3545598;40;20037;-86
2021/07/08 11:19:37;;;;;;;7.30;4.15;;;22.50;85.50;;;;;;3552316;40;20045;-86
2021/07/08 11:22:16;;;;;;;7.25;3.13;;;22.30;86.40;;;;;;3552738;40;20030;-86
2021/07/08 11:24:48;;;;;;;6.72;4.45;;;22.30;90.40;;;;;;3560220;40;20066;-83
2021/07/08 11:27:23;;;;;;;5.63;3.70;;;22.30;87.40;;;;;;3563453;40;20041;-86
2021/07/08 11:29:52;;;;;;;6.40;5.07;;;22.20;87.50;;;;;;3555538;40;20050;-88
2021/07/08 11:32:24;;;;;;;13.55;5.28;;;22.00;89.50;;;;;;3560415;40;20081;-85
2021/07/08 11:34:57;;;;;;;7.70;3.97;;;21.80;88.50;;;;;;3563838;40;20025;-85
2021/07/08 11:37:48;;;;;;;4.07;2.90;;;21.70;89.00;;;;;;3565070;40;20096;-86
2021/07/08 11:40:16;;;;;;;7.22;3.38;;;21.70;90.50;;;;;;3558431;40;20240;-84
2021/07/08 11:42:44;;;;;;;7.88;3.42;;;21.70;90.50;;;;;;3599600;23;20052;-84
2021/07/08 11:45:15;;;;;;;7.03;3.33;;;21.80;90.40;;;;;;3625734;23;20040;-86
2021/07/08 11:47:45;;;;;;;11.82;4.85;;;21.90;90.70;;;;;;3597381;40;20063;-85
2021/07/08 11:50:27;;;;;;;8.25;4.72;;;22.00;90.90;;;;;;3585426;40;20323;-82
2021/07/08 11:53:05;;;;;;;8.85;4.60;;;21.90;90.80;;;;;;3595474;40;20032;-82
2021/07/08 11:55:33;;;;;;;9.73;5.30;;;21.60;91.90;;;;;;3586351;40;20545;-83
2021/07/08 11:58:02;;;;;;;5.68;4.75;;;21.50;91.70;;;;;;3595824;40;20036;-82
2021/07/08 12:00:32;;;;;;;9.77;6.00;;;21.40;92.10;;;;;;3595935;40;20056;-82
2021/07/08 12:03:00;;;;;;;5.85;4.05;;;21.50;92.00;;;;;;3595905;40;20044;-84
2021/07/08 12:05:26;;;;;;;8.30;4.85;;;21.50;92.40;;;;;;3595784;40;20040;-83
2021/07/08 12:07:58;;;;;;;7.43;5.35;;;21.80;92.80;;;;;;3596062;39;20036;-82
2021/07/08 12:10:29;;;;;;;6.30;4.65;;;21.90;92.60;;;;;;3586402;40;20048;-84
2021/07/08 12:12:56;;;;;;;8.88;5.05;;;22.00;92.60;;;;;;3595675;40;20076;-83
2021/07/08 12:15:26;;;;;;;5.53;4.13;;;22.10;92.50;;;;;;3597545;40;20327;-83
2021/07/08 12:17:59;;;;;;;7.18;4.65;;;22.20;92.60;;;;;;3597045;40;20086;-84
2021/07/08 12:20:26;;;;;;;5.68;4.82;;;22.20;92.50;;;;;;3597645;40;20121;-82
2021/07/08 12:23:02;;;;;;;6.97;4.38;;;22.20;91.90;;;;;;3579167;40;20052;-83
2021/07/08 12:25:30;;;;;;;5.82;5.43;;;22.20;92.00;;;;;;3597185;40;20063;-83
2021/07/08 12:27:56;;;;;;;4.78;4.07;;;22.00;91.90;;;;;;3597215;39;20212;-81
2021/07/08 12:30:28;;;;;;;5.30;4.80;;;22.00;92.10;;;;;;3597121;40;20063;-83
2021/07/08 12:33:11;;;;;;;5.03;4.43;;;21.90;91.80;;;;;;3586718;40;20036;-82
2021/07/08 12:35:41;;;;;;;;;;;21.70;91.90;;;;;;3597429;40;20044;-81
2021/07/08 12:38:11;;;;;;;8.57;4.15;;;21.70;93.30;;;;;;3597322;40;19930;-84
2021/07/08 12:40:38;;;;;;;9.05;4.70;;;21.80;92.30;;;;;;3587903;40;20048;-85
2021/07/08 12:43:09;;;;;;;9.73;6.05;;;21.80;92.00;;;;;;3588080;40;20047;-81
2021/07/08 12:45:36;;;;;;;5.40;4.78;;;21.80;91.90;;;;;;3596699;40;20226;-81
2021/07/08 12:48:03;;;;;;;8.15;5.88;;;21.80;91.80;;;;;;3577900;40;20044;-82
2021/07/08 12:50:36;;;;;;;7.50;5.10;;;21.70;91.70;;;;;;3596249;40;20319;-82
2021/07/08 12:53:10;;;;;;;6.95;4.80;;;21.70;91.70;;;;;;3597118;40;20050;-83
2021/07/08 12:55:53;;;;;;;4.28;3.85;;;21.70;92.10;;;;;;3596721;40;20042;-86
2021/07/08 12:58:24;;;;;;;9.73;6.30;;;21.60;91.60;;;;;;3595104;40;20044;-86
2021/07/08 13:00:52;;;;;;;5.25;4.15;;;21.60;91.70;;;;;;3596860;40;20521;-82
2021/07/08 13:03:26;;;;;;;6.45;5.25;;;21.50;91.90;;;;;;3597007;40;20235;-82
2021/07/08 13:06:21;;;;;;;9.85;5.93;;;21.50;92.20;;;;;;3587171;40;20494;-82
2021/07/08 13:08:47;;;;;;;5.72;5.13;;;21.50;92.30;;;;;;3592478;40;20311;-81
2021/07/08 13:11:16;;;;;;;7.65;6.28;;;21.60;92.40;;;;;;3586841;40;20036;-81
2021/07/08 13:13:42;;;;;;;5.75;4.93;;;21.50;92.10;;;;;;3593578;40;20055;-81
2021/07/08 13:16:19;;;;;;;7.78;5.68;;;21.50;92.30;;;;;;3587926;40;20446;-81
2021/07/08 13:18:45;;;;;;;8.38;5.45;;;21.40;93.20;;;;;;3596564;39;20052;-80
2021/07/08 13:21:17;;;;;;;8.85;5.95;;;21.40;92.50;;;;;;3597102;40;20036;-82
2021/07/08 13:23:44;;;;;;;5.75;5.10;;;21.40;93.00;;;;;;3596899;40;20036;-82
2021/07/08 13:26:15;;;;;;;10.50;6.20;;;21.30;93.00;;;;;;3596851;40;20136;-82
2021/07/08 13:28:43;;;;;;;8.45;6.10;;;21.30;93.20;;;;;;3596748;40;20036;-82
2021/07/08 13:31:25;;;;;;;6.68;5.93;;;21.30;93.40;;;;;;3585431;40;20042;-82
2021/07/08 13:33:54;;;;;;;6.07;5.50;;;21.20;93.00;;;;;;3596933;40;20509;-82
2021/07/08 13:36:25;;;;;;;6.88;6.18;;;21.00;93.40;;;;;;3597213;40;20125;-82
2021/07/08 13:39:07;;;;;;;8.07;6.30;;;20.90;93.70;;;;;;3587348;40;20370;-81
2021/07/08 13:41:40;;;;;;;7.68;5.50;;;20.90;94.00;;;;;;3596622;40;20036;-81
2021/07/08 13:44:10;;;;;;;7.15;5.18;;;20.90;94.20;;;;;;3587395;40;20108;-81
2021/07/08 13:46:55;;;;;;;5.43;5.03;;;21.10;94.50;;;;;;3596557;40;20044;-81
2021/07/08 13:49:23;;;;;;;7.78;5.13;;;21.30;93.80;;;;;;3596808;40;20343;-81
2021/07/08 13:51:57;;;;;;;9.85;6.60;;;21.40;93.60;;;;;;3587112;40;20056;-81